sensor_id;sensor_type;location;lat;lon;timestamp;pressure;altitude;pressure_sealevel;temperature;humidity
14295;BME280;7231;59.370;18.016;2023-05-02T00:01:31;100229.00;;;7.04;100.00
14295;BME280;7231;59.370;18.016;2023-05-02T00:03:59;100225.25;;;6.96;100.00
14295;BME280;7231;59.370;18.016;2023-05-02T00:06:28;100220.16;;;6.99;100.00
14295;BME280;7231;59.370;18.016;2023-05-02T00:08:57;100215.56;;;6.92;100.00
14295;BME280;7231;59.370;18.016;2023-05-02T00:11:25;100224.38;;;6.95;100.00
14295;BME280;7231;59.370;18.016;2023-05-02T00:13:53;100219.94;;;6.93;100.00
14295;BME280;7231;59.370;18.016;2023-05-02T00:16:21;100239.09;;;6.93;100.00
14295;BME280;7231;59.370;18.016;2023-05-02T00:18:50;100224.97;;;6.87;100.00
14295;BME280;7231;59.370;18.016;2023-05-02T00:21:18;100232.03;;;6.91;100.00
14295;BME280;7231;59.370;18.016;2023-05-02T00:23:46;100219.84;;;6.90;100.00
14295;BME280;7231;59.370;18.016;2023-05-02T00:26:14;100228.50;;;6.89;100.00
14295;BME280;7231;59.370;18.016;2023-05-02T00:28:42;100221.31;;;6.81;100.00
14295;BME280;7231;59.370;18.016;2023-05-02T00:31:10;100203.41;;;6.65;100.00
14295;BME280;7231;59.370;18.016;2023-05-02T00:33:37;100213.03;;;6.68;100.00
14295;BME280;7231;59.370;18.016;2023-05-02T00:36:14;100212.06;;;6.64;100.00
14295;BME280;7231;59.370;18.016;2023-05-02T00:38:42;100222.38;;;6.61;100.00
14295;BME280;7231;59.370;18.016;2023-05-02T00:41:10;100217.78;;;6.54;100.00
14295;BME280;7231;59.370;18.016;2023-05-02T00:43:38;100229.16;;;6.56;100.00
14295;BME280;7231;59.370;18.016;2023-05-02T00:46:06;100216.97;;;6.55;100.00
14295;BME280;7231;59.370;18.016;2023-05-02T00:48:34;100219.47;;;6.52;100.00
14295;BME280;7231;59.370;18.016;2023-05-02T00:51:03;100221.34;;;6.56;100.00
14295;BME280;7231;59.370;18.016;2023-05-02T00:53:34;100225.59;;;6.54;100.00
14295;BME280;7231;59.370;18.016;2023-05-02T00:56:02;100224.56;;;6.49;100.00
14295;BME280;7231;59.370;18.016;2023-05-02T00:58:31;100223.63;;;6.47;100.00
14295;BME280;7231;59.370;18.016;2023-05-02T01:01:10;100224.47;;;6.46;100.00
14295;BME280;7231;59.370;18.016;2023-05-02T01:03:56;100214.50;;;6.34;100.00
14295;BME280;7231;59.370;18.016;2023-05-02T01:06:35;100217.00;;;6.31;100.00
14295;BME280;7231;59.370;18.016;2023-05-02T01:09:20;100249.56;;;6.44;100.00
14295;BME280;7231;59.370;18.016;2023-05-02T01:11:54;100231.34;;;6.44;100.00
14295;BME280;7231;59.370;18.016;2023-05-02T01:14:24;100175.44;;;6.09;100.00
14295;BME280;7231;59.370;18.016;2023-05-02T01:16:54;100225.91;;;6.38;100.00
14295;BME280;7231;59.370;18.016;2023-05-02T01:19:25;100239.97;;;6.43;100.00
14295;BME280;7231;59.370;18.016;2023-05-02T01:21:56;100243.31;;;6.39;100.00
14295;BME280;7231;59.370;18.016;2023-05-02T01:24:30;100241.47;;;6.36;100.00
14295;BME280;7231;59.370;18.016;2023-05-02T01:27:09;100229.81;;;6.25;100.00
14295;BME280;7231;59.370;18.016;2023-05-02T01:29:40;100231.41;;;6.22;100.00
14295;BME280;7231;59.370;18.016;2023-05-02T01:32:10;100244.53;;;6.25;100.00
14295;BME280;7231;59.370;18.016;2023-05-02T01:34:40;100241.81;;;6.22;100.00
14295;BME280;7231;59.370;18.016;2023-05-02T01:37:11;100250.34;;;6.17;100.00
14295;BME280;7231;59.370;18.016;2023-05-02T01:39:40;100254.50;;;6.12;100.00
14295;BME280;7231;59.370;18.016;2023-05-02T01:42:10;100255.16;;;6.07;100.00
14295;BME280;7231;59.370;18.016;2023-05-02T01:44:41;100261.03;;;6.01;100.00
14295;BME280;7231;59.370;18.016;2023-05-02T01:47:11;100235.19;;;5.83;100.00
14295;BME280;7231;59.370;18.016;2023-05-02T01:49:41;100194.31;;;5.57;100.00
14295;BME280;7231;59.370;18.016;2023-05-02T01:52:11;100240.34;;;5.82;100.00
14295;BME280;7231;59.370;18.016;2023-05-02T01:54:40;100239.28;;;5.77;100.00
14295;BME280;7231;59.370;18.016;2023-05-02T01:57:08;100254.22;;;5.82;100.00
14295;BME280;7231;59.370;18.016;2023-05-02T01:59:40;100261.91;;;5.79;100.00
14295;BME280;7231;59.370;18.016;2023-05-02T02:02:10;100253.94;;;5.75;100.00
14295;BME280;7231;59.370;18.016;2023-05-02T02:04:40;100265.06;;;5.71;100.00
14295;BME280;7231;59.370;18.016;2023-05-02T02:07:12;100260.56;;;5.67;100.00
14295;BME280;7231;59.370;18.016;2023-05-02T02:09:40;100269.97;;;5.63;100.00
14295;BME280;7231;59.370;18.016;2023-05-02T02:12:11;100266.34;;;5.60;100.00
14295;BME280;7231;59.370;18.016;2023-05-02T02:14:48;100272.31;;;5.57;100.00
14295;BME280;7231;59.370;18.016;2023-05-02T02:17:23;100267.72;;;5.50;100.00
14295;BME280;7231;59.370;18.016;2023-05-02T02:19:54;100272.84;;;5.48;100.00
14295;BME280;7231;59.370;18.016;2023-05-02T02:22:25;100270.25;;;5.48;100.00
14295;BME280;7231;59.370;18.016;2023-05-02T02:24:56;100285.16;;;5.52;100.00
14295;BME280;7231;59.370;18.016;2023-05-02T02:27:25;100278.94;;;5.49;100.00
14295;BME280;7231;59.370;18.016;2023-05-02T02:29:55;100284.03;;;5.46;100.00
14295;BME280;7231;59.370;18.016;2023-05-02T02:32:23;100275.97;;;5.40;100.00
14295;BME280;7231;59.370;18.016;2023-05-02T02:34:51;100282.84;;;5.38;100.00
14295;BME280;7231;59.370;18.016;2023-05-02T02:37:25;100296.59;;;5.35;100.00
14295;BME280;7231;59.370;18.016;2023-05-02T02:40:00;100220.44;;;4.93;100.00
14295;BME280;7231;59.370;18.016;2023-05-02T02:42:36;100285.00;;;5.27;100.00
14295;BME280;7231;59.370;18.016;2023-05-02T02:45:26;100139.41;;;4.38;100.00
14295;BME280;7231;59.370;18.016;2023-05-02T02:48:03;100290.81;;;5.20;100.00
14295;BME280;7231;59.370;18.016;2023-05-02T02:50:37;100303.69;;;5.17;100.00
14295;BME280;7231;59.370;18.016;2023-05-02T02:53:08;100292.66;;;5.02;100.00
14295;BME280;7231;59.370;18.016;2023-05-02T02:55:45;100311.94;;;5.07;100.00
14295;BME280;7231;59.370;18.016;2023-05-02T02:58:30;100313.44;;;5.02;100.00
14295;BME280;7231;59.370;18.016;2023-05-02T03:01:04;100317.50;;;4.95;100.00
14295;BME280;7231;59.370;18.016;2023-05-02T03:03:33;100265.22;;;4.67;100.00
14295;BME280;7231;59.370;18.016;2023-05-02T03:06:03;100313.63;;;4.85;100.00
14295;BME280;7231;59.370;18.016;2023-05-02T03:08:38;100326.41;;;4.81;100.00
14295;BME280;7231;59.370;18.016;2023-05-02T03:11:07;100331.53;;;4.79;100.00
14295;BME280;7231;59.370;18.016;2023-05-02T03:13:35;100333.19;;;4.77;100.00
14295;BME280;7231;59.370;18.016;2023-05-02T03:16:30;100311.88;;;4.65;100.00
14295;BME280;7231;59.370;18.016;2023-05-02T03:18:59;100332.94;;;4.71;100.00
14295;BME280;7231;59.370;18.016;2023-05-02T03:21:27;100336.34;;;4.70;100.00
14295;BME280;7231;59.370;18.016;2023-05-02T03:23:58;100345.84;;;4.70;100.00
14295;BME280;7231;59.370;18.016;2023-05-02T03:26:26;100340.59;;;4.68;100.00
14295;BME280;7231;59.370;18.016;2023-05-02T03:28:55;100343.94;;;4.66;100.00
14295;BME280;7231;59.370;18.016;2023-05-02T03:31:24;100348.19;;;4.64;100.00
14295;BME280;7231;59.370;18.016;2023-05-02T03:33:52;100340.13;;;4.57;100.00
14295;BME280;7231;59.370;18.016;2023-05-02T03:36:21;100333.00;;;4.53;100.00
14295;BME280;7231;59.370;18.016;2023-05-02T03:38:49;100340.19;;;4.59;100.00
14295;BME280;7231;59.370;18.016;2023-05-02T03:41:17;100339.09;;;4.54;100.00
14295;BME280;7231;59.370;18.016;2023-05-02T03:43:46;100350.44;;;4.56;100.00
14295;BME280;7231;59.370;18.016;2023-05-02T03:46:15;100358.28;;;4.57;100.00
14295;BME280;7231;59.370;18.016;2023-05-02T03:48:45;100364.56;;;4.63;100.00
14295;BME280;7231;59.370;18.016;2023-05-02T03:51:13;100351.00;;;4.49;100.00
14295;BME280;7231;59.370;18.016;2023-05-02T03:53:41;100368.88;;;4.62;100.00
14295;BME280;7231;59.370;18.016;2023-05-02T03:56:09;100380.84;;;4.59;100.00
14295;BME280;7231;59.370;18.016;2023-05-02T03:58:37;100367.44;;;4.49;100.00
14295;BME280;7231;59.370;18.016;2023-05-02T04:01:12;100384.19;;;4.56;100.00
14295;BME280;7231;59.370;18.016;2023-05-02T04:03:42;100380.34;;;4.48;100.00
14295;BME280;7231;59.370;18.016;2023-05-02T04:06:11;100299.47;;;4.00;100.00
14295;BME280;7231;59.370;18.016;2023-05-02T04:08:39;100381.50;;;4.35;100.00
14295;BME280;7231;59.370;18.016;2023-05-02T04:11:07;100385.00;;;4.36;100.00
14295;BME280;7231;59.370;18.016;2023-05-02T04:13:35;100394.56;;;4.37;100.00
14295;BME280;7231;59.370;18.016;2023-05-02T04:16:03;100397.44;;;4.43;100.00
14295;BME280;7231;59.370;18.016;2023-05-02T04:18:31;100411.22;;;4.42;100.00
14295;BME280;7231;59.370;18.016;2023-05-02T04:20:59;100399.47;;;4.31;100.00
14295;BME280;7231;59.370;18.016;2023-05-02T04:23:29;100382.94;;;4.29;100.00
14295;BME280;7231;59.370;18.016;2023-05-02T04:25:57;100411.97;;;4.39;100.00
14295;BME280;7231;59.370;18.016;2023-05-02T04:28:25;100411.09;;;4.39;100.00
14295;BME280;7231;59.370;18.016;2023-05-02T04:30:53;100411.09;;;4.39;100.00
14295;BME280;7231;59.370;18.016;2023-05-02T04:33:21;100416.91;;;4.33;100.00
14295;BME280;7231;59.370;18.016;2023-05-02T04:35:49;100426.53;;;4.36;100.00
14295;BME280;7231;59.370;18.016;2023-05-02T04:38:20;100423.13;;;4.37;100.00
14295;BME280;7231;59.370;18.016;2023-05-02T04:40:50;100431.84;;;4.39;100.00
14295;BME280;7231;59.370;18.016;2023-05-02T04:43:18;100434.59;;;4.42;100.00
14295;BME280;7231;59.370;18.016;2023-05-02T04:45:50;100410.59;;;4.28;100.00
14295;BME280;7231;59.370;18.016;2023-05-02T04:48:18;100439.56;;;4.37;100.00
14295;BME280;7231;59.370;18.016;2023-05-02T04:50:48;100437.66;;;4.33;100.00
14295;BME280;7231;59.370;18.016;2023-05-02T04:53:16;100435.00;;;4.32;100.00
14295;BME280;7231;59.370;18.016;2023-05-02T04:55:44;100446.47;;;4.37;100.00
14295;BME280;7231;59.370;18.016;2023-05-02T04:58:13;100459.53;;;4.38;100.00
14295;BME280;7231;59.370;18.016;2023-05-02T05:00:43;100422.41;;;4.21;100.00
14295;BME280;7231;59.370;18.016;2023-05-02T05:03:13;100448.19;;;4.36;100.00
14295;BME280;7231;59.370;18.016;2023-05-02T05:05:44;100449.97;;;4.37;100.00
14295;BME280;7231;59.370;18.016;2023-05-02T05:08:12;100459.53;;;4.38;100.00
14295;BME280;7231;59.370;18.016;2023-05-02T05:10:40;100457.81;;;4.39;100.00
14295;BME280;7231;59.370;18.016;2023-05-02T05:13:08;100464.78;;;4.40;100.00
14295;BME280;7231;59.370;18.016;2023-05-02T05:15:46;100444.25;;;4.27;100.00
14295;BME280;7231;59.370;18.016;2023-05-02T05:18:15;100443.44;;;4.28;100.00
14295;BME280;7231;59.370;18.016;2023-05-02T05:20:43;100464.25;;;4.47;100.00
14295;BME280;7231;59.370;18.016;2023-05-02T05:23:11;100427.94;;;4.29;100.00
14295;BME280;7231;59.370;18.016;2023-05-02T05:25:39;100449.28;;;4.41;100.00
14295;BME280;7231;59.370;18.016;2023-05-02T05:28:11;100473.50;;;4.60;100.00
14295;BME280;7231;59.370;18.016;2023-05-02T05:30:39;100481.13;;;4.56;100.00
14295;BME280;7231;59.370;18.016;2023-05-02T05:33:08;100488.03;;;4.56;100.00
14295;BME280;7231;59.370;18.016;2023-05-02T05:35:36;100489.81;;;4.57;100.00
14295;BME280;7231;59.370;18.016;2023-05-02T05:38:04;100500.19;;;4.57;100.00
14295;BME280;7231;59.370;18.016;2023-05-02T05:40:32;100481.75;;;4.51;100.00
14295;BME280;7231;59.370;18.016;2023-05-02T05:43:00;100483.44;;;4.50;100.00
14295;BME280;7231;59.370;18.016;2023-05-02T05:45:28;100483.59;;;4.53;100.00
14295;BME280;7231;59.370;18.016;2023-05-02T05:47:56;100495.00;;;4.57;100.00
14295;BME280;7231;59.370;18.016;2023-05-02T05:50:25;100498.72;;;4.62;100.00
14295;BME280;7231;59.370;18.016;2023-05-02T05:52:53;100502.25;;;4.64;100.00
14295;BME280;7231;59.370;18.016;2023-05-02T05:55:21;100506.50;;;4.62;100.00
14295;BME280;7231;59.370;18.016;2023-05-02T05:57:49;100492.94;;;4.50;100.00
14295;BME280;7231;59.370;18.016;2023-05-02T06:00:17;100509.50;;;4.52;100.00
14295;BME280;7231;59.370;18.016;2023-05-02T06:02:46;100519.13;;;4.54;100.00
14295;BME280;7231;59.370;18.016;2023-05-02T06:05:14;100512.69;;;4.46;100.00
14295;BME280;7231;59.370;18.016;2023-05-02T06:07:44;100523.50;;;4.55;100.00
14295;BME280;7231;59.370;18.016;2023-05-02T06:10:12;100530.81;;;4.64;100.00
14295;BME280;7231;59.370;18.016;2023-05-02T06:12:40;100405.41;;;3.91;100.00
14295;BME280;7231;59.370;18.016;2023-05-02T06:15:08;100534.59;;;4.71;100.00
14295;BME280;7231;59.370;18.016;2023-05-02T06:17:36;100541.66;;;4.73;100.00
14295;BME280;7231;59.370;18.016;2023-05-02T06:20:06;100544.25;;;4.73;100.00
14295;BME280;7231;59.370;18.016;2023-05-02T06:22:34;100554.69;;;4.75;100.00
14295;BME280;7231;59.370;18.016;2023-05-02T06:25:05;100561.81;;;4.79;100.00
14295;BME280;7231;59.370;18.016;2023-05-02T06:27:33;100557.59;;;4.81;100.00
14295;BME280;7231;59.370;18.016;2023-05-02T06:30:01;100554.09;;;4.80;99.79
14295;BME280;7231;59.370;18.016;2023-05-02T06:32:29;100559.22;;;4.79;99.53
14295;BME280;7231;59.370;18.016;2023-05-02T06:34:58;100555.66;;;4.77;99.36
14295;BME280;7231;59.370;18.016;2023-05-02T06:37:26;100567.38;;;4.86;99.83
14295;BME280;7231;59.370;18.016;2023-05-02T06:39:54;100576.34;;;4.93;99.93
14295;BME280;7231;59.370;18.016;2023-05-02T06:42:23;100570.53;;;4.99;99.35
14295;BME280;7231;59.370;18.016;2023-05-02T06:44:51;100582.03;;;5.04;99.09
14295;BME280;7231;59.370;18.016;2023-05-02T06:47:19;100586.75;;;5.12;99.24
14295;BME280;7231;59.370;18.016;2023-05-02T06:49:47;100598.31;;;5.19;98.67
14295;BME280;7231;59.370;18.016;2023-05-02T06:52:15;100570.06;;;5.07;98.38
14295;BME280;7231;59.370;18.016;2023-05-02T06:54:43;100597.66;;;5.25;98.55
14295;BME280;7231;59.370;18.016;2023-05-02T06:57:11;100586.53;;;5.27;98.21
14295;BME280;7231;59.370;18.016;2023-05-02T06:59:40;100600.06;;;5.39;97.37
14295;BME280;7231;59.370;18.016;2023-05-02T07:02:08;100607.72;;;5.36;97.48
14295;BME280;7231;59.370;18.016;2023-05-02T07:04:36;100614.16;;;5.25;96.92
14295;BME280;7231;59.370;18.016;2023-05-02T07:07:04;100620.81;;;5.18;96.87
14295;BME280;7231;59.370;18.016;2023-05-02T07:09:33;100616.22;;;5.13;96.34
14295;BME280;7231;59.370;18.016;2023-05-02T07:12:00;100596.50;;;4.99;96.54
14295;BME280;7231;59.370;18.016;2023-05-02T07:14:32;100637.03;;;5.13;96.51
14295;BME280;7231;59.370;18.016;2023-05-02T07:17:01;100635.78;;;5.05;95.95
14295;BME280;7231;59.370;18.016;2023-05-02T07:19:29;100642.47;;;5.00;95.96
14295;BME280;7231;59.370;18.016;2023-05-02T07:21:57;100652.72;;;4.97;95.65
14295;BME280;7231;59.370;18.016;2023-05-02T07:24:25;100646.03;;;5.02;95.98
14295;BME280;7231;59.370;18.016;2023-05-02T07:26:53;100652.19;;;5.04;95.45
14295;BME280;7231;59.370;18.016;2023-05-02T07:29:21;100667.63;;;5.01;95.43
14295;BME280;7231;59.370;18.016;2023-05-02T07:31:49;100669.94;;;4.95;94.89
14295;BME280;7231;59.370;18.016;2023-05-02T07:34:18;100669.72;;;4.90;94.67
14295;BME280;7231;59.370;18.016;2023-05-02T07:36:46;100681.28;;;4.97;95.16
14295;BME280;7231;59.370;18.016;2023-05-02T07:39:14;100684.47;;;5.09;95.38
14295;BME280;7231;59.370;18.016;2023-05-02T07:41:42;100683.13;;;5.17;95.27
14295;BME280;7231;59.370;18.016;2023-05-02T07:44:10;100584.69;;;4.68;95.36
14295;BME280;7231;59.370;18.016;2023-05-02T07:46:38;100710.94;;;5.57;94.97
14295;BME280;7231;59.370;18.016;2023-05-02T07:49:06;100701.97;;;5.69;94.16
14295;BME280;7231;59.370;18.016;2023-05-02T07:51:35;100718.06;;;5.80;94.18
14295;BME280;7231;59.370;18.016;2023-05-02T07:54:14;100716.94;;;5.93;93.70
14295;BME280;7231;59.370;18.016;2023-05-02T07:56:42;100726.13;;;6.04;93.23
14295;BME280;7231;59.370;18.016;2023-05-02T07:59:10;100743.03;;;6.13;92.75
14295;BME280;7231;59.370;18.016;2023-05-02T08:01:38;100731.44;;;6.26;92.78
14295;BME280;7231;59.370;18.016;2023-05-02T08:04:07;100734.84;;;6.44;91.73
14295;BME280;7231;59.370;18.016;2023-05-02T08:06:37;100736.00;;;6.51;91.55
14295;BME280;7231;59.370;18.016;2023-05-02T08:09:05;100744.25;;;6.62;90.23
14295;BME280;7231;59.370;18.016;2023-05-02T08:11:34;100760.59;;;6.58;90.29
14295;BME280;7231;59.370;18.016;2023-05-02T08:14:03;100751.56;;;6.49;88.81
14295;BME280;7231;59.370;18.016;2023-05-02T08:16:30;100766.66;;;6.37;88.28
14295;BME280;7231;59.370;18.016;2023-05-02T08:18:58;100762.53;;;6.42;88.95
14295;BME280;7231;59.370;18.016;2023-05-02T08:21:27;100767.50;;;6.57;88.76
14295;BME280;7231;59.370;18.016;2023-05-02T08:23:58;100774.66;;;6.82;88.17
14295;BME280;7231;59.370;18.016;2023-05-02T08:26:26;100775.16;;;6.94;87.95
14295;BME280;7231;59.370;18.016;2023-05-02T08:28:54;100788.88;;;6.90;86.31
14295;BME280;7231;59.370;18.016;2023-05-02T08:31:22;100775.47;;;6.81;86.98
14295;BME280;7231;59.370;18.016;2023-05-02T08:33:50;100789.88;;;7.35;90.83
14295;BME280;7231;59.370;18.016;2023-05-02T08:36:19;100781.75;;;8.19;91.11
14295;BME280;7231;59.370;18.016;2023-05-02T08:38:47;100797.06;;;8.81;88.61
14295;BME280;7231;59.370;18.016;2023-05-02T08:41:18;100800.66;;;8.85;84.14
14295;BME280;7231;59.370;18.016;2023-05-02T08:43:46;100796.78;;;8.48;81.57
14295;BME280;7231;59.370;18.016;2023-05-02T08:46:15;100820.94;;;7.96;81.56
14295;BME280;7231;59.370;18.016;2023-05-02T08:48:45;100832.72;;;7.63;83.13
14295;BME280;7231;59.370;18.016;2023-05-02T08:51:15;100826.66;;;7.86;87.00
14295;BME280;7231;59.370;18.016;2023-05-02T08:53:45;100832.41;;;8.46;89.33
14295;BME280;7231;59.370;18.016;2023-05-02T08:56:13;100829.34;;;9.07;89.30
14295;BME280;7231;59.370;18.016;2023-05-02T08:58:42;100830.47;;;9.15;87.30
14295;BME280;7231;59.370;18.016;2023-05-02T09:01:12;100840.97;;;9.69;89.91
14295;BME280;7231;59.370;18.016;2023-05-02T09:03:43;100827.03;;;10.58;89.70
14295;BME280;7231;59.370;18.016;2023-05-02T09:06:13;100832.78;;;11.44;88.48
14295;BME280;7231;59.370;18.016;2023-05-02T09:08:43;100814.22;;;12.12;85.63
14295;BME280;7231;59.370;18.016;2023-05-02T09:11:11;100838.31;;;12.77;81.52
14295;BME280;7231;59.370;18.016;2023-05-02T09:13:42;100837.75;;;12.93;76.61
14295;BME280;7231;59.370;18.016;2023-05-02T09:16:13;100849.72;;;12.76;72.04
14295;BME280;7231;59.370;18.016;2023-05-02T09:18:43;100842.47;;;12.22;70.20
14295;BME280;7231;59.370;18.016;2023-05-02T09:21:12;100855.19;;;11.66;69.31
14295;BME280;7231;59.370;18.016;2023-05-02T09:23:45;100865.88;;;11.37;69.78
14295;BME280;7231;59.370;18.016;2023-05-02T09:26:15;100843.19;;;11.06;69.17
14295;BME280;7231;59.370;18.016;2023-05-02T09:28:46;100870.94;;;10.97;69.46
14295;BME280;7231;59.370;18.016;2023-05-02T09:31:15;100868.53;;;11.06;70.13
14295;BME280;7231;59.370;18.016;2023-05-02T09:34:07;100872.91;;;11.75;70.22
14295;BME280;7231;59.370;18.016;2023-05-02T09:36:38;100792.91;;;11.98;68.95
14295;BME280;7231;59.370;18.016;2023-05-02T09:39:08;100868.56;;;12.53;67.42
14295;BME280;7231;59.370;18.016;2023-05-02T09:41:40;100861.59;;;12.55;64.63
14295;BME280;7231;59.370;18.016;2023-05-02T09:44:11;100867.38;;;12.83;64.93
14295;BME280;7231;59.370;18.016;2023-05-02T09:46:39;100863.97;;;13.37;65.00
14295;BME280;7231;59.370;18.016;2023-05-02T09:49:08;100875.72;;;13.55;61.80
14295;BME280;7231;59.370;18.016;2023-05-02T09:51:36;100856.66;;;13.19;60.02
14295;BME280;7231;59.370;18.016;2023-05-02T09:54:04;100885.78;;;12.39;57.59
14295;BME280;7231;59.370;18.016;2023-05-02T09:56:50;100880.09;;;11.82;59.25
14295;BME280;7231;59.370;18.016;2023-05-02T09:59:20;100892.31;;;12.17;62.01
14295;BME280;7231;59.370;18.016;2023-05-02T10:01:54;100889.69;;;13.03;60.68
14295;BME280;7231;59.370;18.016;2023-05-02T10:04:24;100884.28;;;13.44;58.85
14295;BME280;7231;59.370;18.016;2023-05-02T10:06:53;100893.72;;;13.31;57.34
14295;BME280;7231;59.370;18.016;2023-05-02T10:09:22;100886.63;;;12.80;55.43
14295;BME280;7231;59.370;18.016;2023-05-02T10:11:53;100902.28;;;11.93;55.94
14295;BME280;7231;59.370;18.016;2023-05-02T10:14:23;100878.38;;;11.48;57.01
14295;BME280;7231;59.370;18.016;2023-05-02T10:16:59;100908.69;;;11.69;57.84
14295;BME280;7231;59.370;18.016;2023-05-02T10:19:29;100911.88;;;11.92;57.74
14295;BME280;7231;59.370;18.016;2023-05-02T10:21:59;100909.53;;;11.68;56.64
14295;BME280;7231;59.370;18.016;2023-05-02T10:24:30;100920.00;;;11.32;57.55
14295;BME280;7231;59.370;18.016;2023-05-02T10:26:59;100903.50;;;11.38;59.22
14295;BME280;7231;59.370;18.016;2023-05-02T10:29:30;100754.59;;;11.32;60.25
14295;BME280;7231;59.370;18.016;2023-05-02T10:31:59;100904.66;;;13.07;58.63
14295;BME280;7231;59.370;18.016;2023-05-02T10:34:31;100900.56;;;13.71;57.22
14295;BME280;7231;59.370;18.016;2023-05-02T10:36:59;100898.34;;;13.98;55.66
14295;BME280;7231;59.370;18.016;2023-05-02T10:39:29;100915.66;;;13.81;53.02
14295;BME280;7231;59.370;18.016;2023-05-02T10:41:59;100911.03;;;13.17;52.71
14295;BME280;7231;59.370;18.016;2023-05-02T10:44:34;100893.81;;;12.89;52.01
14295;BME280;7231;59.370;18.016;2023-05-02T10:47:17;100919.34;;;12.51;51.25
14295;BME280;7231;59.370;18.016;2023-05-02T10:49:49;100924.25;;;12.76;52.14
14295;BME280;7231;59.370;18.016;2023-05-02T10:52:25;100919.25;;;12.88;50.58
14295;BME280;7231;59.370;18.016;2023-05-02T10:55:18;100933.72;;;12.66;49.99
14295;BME280;7231;59.370;18.016;2023-05-02T11:00:49;100965.63;;;11.06;50.81
14295;BME280;7231;59.370;18.016;2023-05-02T11:06:29;100957.59;;;9.86;56.53
14295;BME280;7231;59.370;18.016;2023-05-02T11:09:30;100966.38;;;10.42;57.57
14295;BME280;7231;59.370;18.016;2023-05-02T11:12:00;100959.94;;;10.91;57.93
14295;BME280;7231;59.370;18.016;2023-05-02T11:14:48;100963.81;;;11.35;56.03
14295;BME280;7231;59.370;18.016;2023-05-02T11:17:18;100948.88;;;11.67;56.39
14295;BME280;7231;59.370;18.016;2023-05-02T11:22:55;100968.97;;;12.75;54.25
14295;BME280;7231;59.370;18.016;2023-05-02T11:25:36;100970.00;;;12.42;51.97
14295;BME280;7231;59.370;18.016;2023-05-02T11:28:06;100977.84;;;12.41;53.16
14295;BME280;7231;59.370;18.016;2023-05-02T11:30:43;100956.09;;;12.48;50.58
14295;BME280;7231;59.370;18.016;2023-05-02T11:33:16;100915.91;;;12.53;50.78
14295;BME280;7231;59.370;18.016;2023-05-02T11:35:46;100969.34;;;12.93;48.62
14295;BME280;7231;59.370;18.016;2023-05-02T11:38:17;100971.28;;;12.22;48.24
14295;BME280;7231;59.370;18.016;2023-05-02T11:40:56;100976.88;;;11.99;49.98
14295;BME280;7231;59.370;18.016;2023-05-02T11:43:26;100961.88;;;12.71;50.59
14295;BME280;7231;59.370;18.016;2023-05-02T11:45:59;100951.94;;;12.99;48.37
14295;BME280;7231;59.370;18.016;2023-05-02T11:48:30;100986.00;;;13.36;47.35
14295;BME280;7231;59.370;18.016;2023-05-02T11:50:59;100996.41;;;13.76;46.48
14295;BME280;7231;59.370;18.016;2023-05-02T11:53:31;100997.72;;;14.03;44.98
14295;BME280;7231;59.370;18.016;2023-05-02T11:56:00;100986.41;;;14.10;44.13
14295;BME280;7231;59.370;18.016;2023-05-02T11:58:29;100980.97;;;14.53;43.50
14295;BME280;7231;59.370;18.016;2023-05-02T12:01:10;100967.88;;;14.61;43.46
14295;BME280;7231;59.370;18.016;2023-05-02T12:03:40;101003.66;;;14.42;42.08
14295;BME280;7231;59.370;18.016;2023-05-02T12:06:10;101000.75;;;14.25;42.39
14295;BME280;7231;59.370;18.016;2023-05-02T12:08:42;100991.97;;;14.26;41.03
14295;BME280;7231;59.370;18.016;2023-05-02T12:11:12;100998.66;;;14.60;41.34
14295;BME280;7231;59.370;18.016;2023-05-02T12:13:44;101008.31;;;14.60;40.14
14295;BME280;7231;59.370;18.016;2023-05-02T12:16:13;100991.59;;;14.59;40.68
14295;BME280;7231;59.370;18.016;2023-05-02T12:18:44;101013.84;;;14.78;39.55
14295;BME280;7231;59.370;18.016;2023-05-02T12:21:14;101001.59;;;15.56;39.85
14295;BME280;7231;59.370;18.016;2023-05-02T12:23:42;101003.22;;;16.45;38.91
14295;BME280;7231;59.370;18.016;2023-05-02T12:26:17;101016.88;;;17.12;36.23
14295;BME280;7231;59.370;18.016;2023-05-02T12:28:48;101003.50;;;16.86;36.54
14295;BME280;7231;59.370;18.016;2023-05-02T12:31:17;100992.16;;;17.17;36.73
14295;BME280;7231;59.370;18.016;2023-05-02T12:33:47;101009.88;;;17.32;35.22
14295;BME280;7231;59.370;18.016;2023-05-02T12:36:16;101007.31;;;17.61;35.36
14295;BME280;7231;59.370;18.016;2023-05-02T12:38:48;101020.63;;;17.89;34.03
14295;BME280;7231;59.370;18.016;2023-05-02T12:41:18;101022.31;;;17.56;33.94
14295;BME280;7231;59.370;18.016;2023-05-02T12:43:47;101033.56;;;16.93;33.92
14295;BME280;7231;59.370;18.016;2023-05-02T12:46:16;101034.47;;;16.96;35.11
14295;BME280;7231;59.370;18.016;2023-05-02T12:48:44;101035.59;;;17.62;34.84
14295;BME280;7231;59.370;18.016;2023-05-02T12:51:23;101050.59;;;17.51;33.18
14295;BME280;7231;59.370;18.016;2023-05-02T12:53:51;101051.47;;;17.55;33.41
14295;BME280;7231;59.370;18.016;2023-05-02T12:56:19;101052.22;;;17.20;33.26
14295;BME280;7231;59.370;18.016;2023-05-02T12:58:47;101046.09;;;17.30;34.08
14295;BME280;7231;59.370;18.016;2023-05-02T13:01:16;101062.84;;;17.20;33.98
14295;BME280;7231;59.370;18.016;2023-05-02T13:03:44;101070.50;;;16.68;33.67
14295;BME280;7231;59.370;18.016;2023-05-02T13:06:13;101069.78;;;15.89;34.69
14295;BME280;7231;59.370;18.016;2023-05-02T13:08:43;101065.97;;;15.63;35.89
14295;BME280;7231;59.370;18.016;2023-05-02T13:11:10;101093.63;;;15.18;35.61
14295;BME280;7231;59.370;18.016;2023-05-02T13:13:38;101087.72;;;14.74;36.05
14295;BME280;7231;59.370;18.016;2023-05-02T13:16:07;101099.31;;;14.85;36.37
14295;BME280;7231;59.370;18.016;2023-05-02T13:18:35;101077.16;;;15.39;35.50